sensor_id;sensor_type;location;lat;lon;timestamp;P1;durP1;ratioP1;P2;durP2;ratioP2
4704;SDS011;2366;51.332;6.610;2023-04-16T00:00:00;22.23;;;9.00;;
4704;SDS011;2366;51.332;6.610;2023-04-16T00:02:28;12.68;;;7.80;;
4704;SDS011;2366;51.332;6.610;2023-04-16T00:04:53;21.00;;;9.77;;
4704;SDS011;2366;51.332;6.610;2023-04-16T00:07:19;28.77;;;8.60;;
4704;SDS011;2366;51.332;6.610;2023-04-16T00:09:44;14.40;;;7.80;;
4704;SDS011;2366;51.332;6.610;2023-04-16T00:12:10;24.03;;;9.13;;
4704;SDS011;2366;51.332;6.610;2023-04-16T00:14:36;22.87;;;10.47;;
4704;SDS011;2366;51.332;6.610;2023-04-16T00:17:01;19.10;;;9.87;;
4704;SDS011;2366;51.332;6.610;2023-04-16T00:19:26;17.10;;;9.33;;
4704;SDS011;2366;51.332;6.610;2023-04-16T00:21:52;18.77;;;8.57;;
4704;SDS011;2366;51.332;6.610;2023-04-16T00:24:17;20.93;;;9.03;;
4704;SDS011;2366;51.332;6.610;2023-04-16T00:26:43;15.40;;;8.83;;
4704;SDS011;2366;51.332;6.610;2023-04-16T00:29:10;19.98;;;9.15;;
4704;SDS011;2366;51.332;6.610;2023-04-16T00:31:35;25.60;;;9.27;;
4704;SDS011;2366;51.332;6.610;2023-04-16T00:34:01;19.47;;;8.50;;
4704;SDS011;2366;51.332;6.610;2023-04-16T00:36:26;23.10;;;10.00;;
4704;SDS011;2366;51.332;6.610;2023-04-16T00:38:53;16.47;;;9.80;;
4704;SDS011;2366;51.332;6.610;2023-04-16T00:41:19;21.30;;;10.13;;
4704;SDS011;2366;51.332;6.610;2023-04-16T00:43:45;19.73;;;10.02;;
4704;SDS011;2366;51.332;6.610;2023-04-16T00:46:10;22.97;;;9.73;;
4704;SDS011;2366;51.332;6.610;2023-04-16T00:48:37;18.73;;;10.45;;
4704;SDS011;2366;51.332;6.610;2023-04-16T00:51:04;25.90;;;9.90;;
4704;SDS011;2366;51.332;6.610;2023-04-16T00:53:30;16.70;;;8.65;;
4704;SDS011;2366;51.332;6.610;2023-04-16T00:55:56;21.13;;;10.50;;
4704;SDS011;2366;51.332;6.610;2023-04-16T00:58:21;19.07;;;9.00;;
4704;SDS011;2366;51.332;6.610;2023-04-16T01:00:47;18.73;;;10.27;;
4704;SDS011;2366;51.332;6.610;2023-04-16T01:03:13;17.63;;;11.17;;
4704;SDS011;2366;51.332;6.610;2023-04-16T01:05:38;15.97;;;9.97;;
4704;SDS011;2366;51.332;6.610;2023-04-16T01:08:04;15.00;;;9.68;;
4704;SDS011;2366;51.332;6.610;2023-04-16T01:10:30;25.67;;;11.57;;
4704;SDS011;2366;51.332;6.610;2023-04-16T01:12:55;26.70;;;11.07;;
4704;SDS011;2366;51.332;6.610;2023-04-16T01:15:20;22.53;;;11.57;;
4704;SDS011;2366;51.332;6.610;2023-04-16T01:17:46;17.37;;;9.13;;
4704;SDS011;2366;51.332;6.610;2023-04-16T01:20:11;16.13;;;10.00;;
4704;SDS011;2366;51.332;6.610;2023-04-16T01:22:37;19.80;;;11.00;;
4704;SDS011;2366;51.332;6.610;2023-04-16T01:25:02;14.50;;;9.87;;
4704;SDS011;2366;51.332;6.610;2023-04-16T01:27:28;18.13;;;11.23;;
4704;SDS011;2366;51.332;6.610;2023-04-16T01:29:53;24.10;;;12.20;;
4704;SDS011;2366;51.332;6.610;2023-04-16T01:32:20;25.75;;;11.55;;
4704;SDS011;2366;51.332;6.610;2023-04-16T01:34:45;29.07;;;11.17;;
4704;SDS011;2366;51.332;6.610;2023-04-16T01:37:11;18.00;;;11.33;;
4704;SDS011;2366;51.332;6.610;2023-04-16T01:39:36;30.60;;;12.43;;
4704;SDS011;2366;51.332;6.610;2023-04-16T01:42:02;24.83;;;12.07;;
4704;SDS011;2366;51.332;6.610;2023-04-16T01:44:27;21.10;;;13.17;;
4704;SDS011;2366;51.332;6.610;2023-04-16T01:46:53;21.30;;;11.20;;
4704;SDS011;2366;51.332;6.610;2023-04-16T01:49:18;22.97;;;11.90;;
4704;SDS011;2366;51.332;6.610;2023-04-16T01:51:44;20.87;;;12.60;;
4704;SDS011;2366;51.332;6.610;2023-04-16T01:54:09;45.37;;;14.00;;
4704;SDS011;2366;51.332;6.610;2023-04-16T01:56:34;22.93;;;12.00;;
4704;SDS011;2366;51.332;6.610;2023-04-16T01:59:00;21.23;;;11.70;;
4704;SDS011;2366;51.332;6.610;2023-04-16T02:01:25;22.97;;;12.20;;
4704;SDS011;2366;51.332;6.610;2023-04-16T02:03:51;23.30;;;12.10;;
4704;SDS011;2366;51.332;6.610;2023-04-16T02:06:17;27.17;;;14.20;;
4704;SDS011;2366;51.332;6.610;2023-04-16T02:08:42;30.47;;;12.30;;
4704;SDS011;2366;51.332;6.610;2023-04-16T02:11:08;22.47;;;14.40;;
4704;SDS011;2366;51.332;6.610;2023-04-16T02:13:33;22.23;;;13.20;;
4704;SDS011;2366;51.332;6.610;2023-04-16T02:15:58;26.30;;;13.57;;
4704;SDS011;2366;51.332;6.610;2023-04-16T02:18:24;35.47;;;14.60;;
4704;SDS011;2366;51.332;6.610;2023-04-16T02:20:49;25.87;;;13.50;;
4704;SDS011;2366;51.332;6.610;2023-04-16T02:23:15;21.60;;;12.43;;
4704;SDS011;2366;51.332;6.610;2023-04-16T02:25:42;31.08;;;16.38;;
4704;SDS011;2366;51.332;6.610;2023-04-16T02:28:13;29.77;;;15.57;;
4704;SDS011;2366;51.332;6.610;2023-04-16T02:30:39;32.22;;;14.23;;
4704;SDS011;2366;51.332;6.610;2023-04-16T02:33:06;26.20;;;15.63;;
4704;SDS011;2366;51.332;6.610;2023-04-16T02:35:33;35.22;;;17.00;;
4704;SDS011;2366;51.332;6.610;2023-04-16T02:37:59;45.65;;;16.42;;
4704;SDS011;2366;51.332;6.610;2023-04-16T02:40:25;29.73;;;16.85;;
4704;SDS011;2366;51.332;6.610;2023-04-16T02:42:51;26.83;;;13.80;;
4704;SDS011;2366;51.332;6.610;2023-04-16T02:45:17;27.20;;;16.05;;
4704;SDS011;2366;51.332;6.610;2023-04-16T02:47:43;31.20;;;15.87;;
4704;SDS011;2366;51.332;6.610;2023-04-16T02:50:08;30.70;;;16.97;;
4704;SDS011;2366;51.332;6.610;2023-04-16T02:52:34;29.00;;;16.43;;
4704;SDS011;2366;51.332;6.610;2023-04-16T02:54:59;27.63;;;15.10;;
4704;SDS011;2366;51.332;6.610;2023-04-16T02:57:25;30.30;;;16.13;;
4704;SDS011;2366;51.332;6.610;2023-04-16T02:59:50;41.50;;;19.37;;
4704;SDS011;2366;51.332;6.610;2023-04-16T03:02:15;36.97;;;17.83;;
4704;SDS011;2366;51.332;6.610;2023-04-16T03:04:41;36.63;;;18.50;;
4704;SDS011;2366;51.332;6.610;2023-04-16T03:07:06;35.07;;;16.10;;
4704;SDS011;2366;51.332;6.610;2023-04-16T03:09:33;41.35;;;18.70;;
4704;SDS011;2366;51.332;6.610;2023-04-16T03:12:01;31.60;;;17.60;;
4704;SDS011;2366;51.332;6.610;2023-04-16T03:14:27;32.70;;;17.23;;
4704;SDS011;2366;51.332;6.610;2023-04-16T03:16:52;41.67;;;18.50;;
4704;SDS011;2366;51.332;6.610;2023-04-16T03:19:18;36.00;;;18.13;;
4704;SDS011;2366;51.332;6.610;2023-04-16T03:21:43;29.20;;;16.70;;
4704;SDS011;2366;51.332;6.610;2023-04-16T03:24:09;34.10;;;16.90;;
4704;SDS011;2366;51.332;6.610;2023-04-16T03:26:34;45.67;;;17.93;;
4704;SDS011;2366;51.332;6.610;2023-04-16T03:29:00;36.23;;;18.20;;
4704;SDS011;2366;51.332;6.610;2023-04-16T03:31:26;38.58;;;21.65;;
4704;SDS011;2366;51.332;6.610;2023-04-16T03:33:51;30.93;;;17.57;;
4704;SDS011;2366;51.332;6.610;2023-04-16T03:36:17;32.70;;;16.27;;
4704;SDS011;2366;51.332;6.610;2023-04-16T03:38:42;36.07;;;19.80;;
4704;SDS011;2366;51.332;6.610;2023-04-16T03:41:08;34.30;;;15.80;;
4704;SDS011;2366;51.332;6.610;2023-04-16T03:43:33;33.33;;;18.50;;
4704;SDS011;2366;51.332;6.610;2023-04-16T03:45:58;41.17;;;19.27;;
4704;SDS011;2366;51.332;6.610;2023-04-16T03:48:24;35.20;;;19.80;;
4704;SDS011;2366;51.332;6.610;2023-04-16T03:50:49;32.03;;;18.20;;
4704;SDS011;2366;51.332;6.610;2023-04-16T03:53:14;35.50;;;20.17;;
4704;SDS011;2366;51.332;6.610;2023-04-16T03:55:40;49.70;;;20.43;;
4704;SDS011;2366;51.332;6.610;2023-04-16T03:58:06;37.90;;;19.17;;
4704;SDS011;2366;51.332;6.610;2023-04-16T04:00:31;46.13;;;21.03;;
4704;SDS011;2366;51.332;6.610;2023-04-16T04:02:57;32.70;;;18.37;;
4704;SDS011;2366;51.332;6.610;2023-04-16T04:05:22;41.23;;;20.97;;
4704;SDS011;2366;51.332;6.610;2023-04-16T04:07:48;35.70;;;20.53;;
4704;SDS011;2366;51.332;6.610;2023-04-16T04:10:13;38.00;;;18.23;;
4704;SDS011;2366;51.332;6.610;2023-04-16T04:12:39;47.63;;;18.60;;
4704;SDS011;2366;51.332;6.610;2023-04-16T04:15:05;33.73;;;20.60;;
4704;SDS011;2366;51.332;6.610;2023-04-16T04:17:30;39.67;;;19.60;;
4704;SDS011;2366;51.332;6.610;2023-04-16T04:19:56;41.07;;;20.03;;
4704;SDS011;2366;51.332;6.610;2023-04-16T04:22:21;32.50;;;20.30;;
4704;SDS011;2366;51.332;6.610;2023-04-16T04:24:47;42.13;;;20.10;;
4704;SDS011;2366;51.332;6.610;2023-04-16T04:27:12;35.20;;;19.40;;
4704;SDS011;2366;51.332;6.610;2023-04-16T04:29:38;38.13;;;19.13;;
4704;SDS011;2366;51.332;6.610;2023-04-16T04:32:03;43.43;;;20.03;;
4704;SDS011;2366;51.332;6.610;2023-04-16T04:34:31;37.72;;;19.75;;
4704;SDS011;2366;51.332;6.610;2023-04-16T04:36:57;37.83;;;20.93;;
4704;SDS011;2366;51.332;6.610;2023-04-16T04:39:23;39.10;;;19.00;;
4704;SDS011;2366;51.332;6.610;2023-04-16T04:41:48;33.43;;;19.07;;
4704;SDS011;2366;51.332;6.610;2023-04-16T04:44:13;33.40;;;19.90;;
4704;SDS011;2366;51.332;6.610;2023-04-16T04:46:39;34.57;;;18.83;;
4704;SDS011;2366;51.332;6.610;2023-04-16T04:49:05;38.37;;;19.70;;
4704;SDS011;2366;51.332;6.610;2023-04-16T04:51:30;39.87;;;21.43;;
4704;SDS011;2366;51.332;6.610;2023-04-16T04:53:56;36.43;;;18.43;;
4704;SDS011;2366;51.332;6.610;2023-04-16T04:56:22;43.17;;;22.90;;
4704;SDS011;2366;51.332;6.610;2023-04-16T04:58:48;36.30;;;19.87;;
4704;SDS011;2366;51.332;6.610;2023-04-16T05:01:15;38.00;;;20.73;;
4704;SDS011;2366;51.332;6.610;2023-04-16T05:03:40;38.67;;;18.20;;
4704;SDS011;2366;51.332;6.610;2023-04-16T05:06:05;36.53;;;20.87;;
4704;SDS011;2366;51.332;6.610;2023-04-16T05:08:31;54.50;;;22.90;;
4704;SDS011;2366;51.332;6.610;2023-04-16T05:10:57;47.50;;;21.60;;
4704;SDS011;2366;51.332;6.610;2023-04-16T05:13:22;39.17;;;21.03;;
4704;SDS011;2366;51.332;6.610;2023-04-16T05:15:47;41.43;;;23.20;;
4704;SDS011;2366;51.332;6.610;2023-04-16T05:18:13;48.23;;;22.70;;
4704;SDS011;2366;51.332;6.610;2023-04-16T05:20:38;43.50;;;20.77;;
4704;SDS011;2366;51.332;6.610;2023-04-16T05:23:04;46.33;;;22.37;;
4704;SDS011;2366;51.332;6.610;2023-04-16T05:25:30;39.03;;;19.93;;
4704;SDS011;2366;51.332;6.610;2023-04-16T05:27:55;35.83;;;21.07;;
4704;SDS011;2366;51.332;6.610;2023-04-16T05:30:20;44.03;;;21.67;;
4704;SDS011;2366;51.332;6.610;2023-04-16T05:32:46;52.07;;;21.93;;
4704;SDS011;2366;51.332;6.610;2023-04-16T05:35:11;33.73;;;20.70;;
4704;SDS011;2366;51.332;6.610;2023-04-16T05:37:36;46.77;;;22.93;;
4704;SDS011;2366;51.332;6.610;2023-04-16T05:40:02;41.63;;;23.23;;
4704;SDS011;2366;51.332;6.610;2023-04-16T05:42:28;42.57;;;23.17;;
4704;SDS011;2366;51.332;6.610;2023-04-16T05:44:53;42.20;;;22.83;;
4704;SDS011;2366;51.332;6.610;2023-04-16T05:47:19;42.17;;;20.53;;
4704;SDS011;2366;51.332;6.610;2023-04-16T05:49:44;44.63;;;23.10;;
4704;SDS011;2366;51.332;6.610;2023-04-16T05:52:09;47.90;;;23.33;;
4704;SDS011;2366;51.332;6.610;2023-04-16T05:54:35;40.70;;;20.20;;
4704;SDS011;2366;51.332;6.610;2023-04-16T05:57:00;46.37;;;23.30;;
4704;SDS011;2366;51.332;6.610;2023-04-16T05:59:26;47.70;;;24.07;;
4704;SDS011;2366;51.332;6.610;2023-04-16T06:01:52;37.80;;;20.90;;
4704;SDS011;2366;51.332;6.610;2023-04-16T06:04:17;46.77;;;22.93;;
4704;SDS011;2366;51.332;6.610;2023-04-16T06:06:43;44.97;;;20.30;;
4704;SDS011;2366;51.332;6.610;2023-04-16T06:09:09;40.10;;;22.77;;
4704;SDS011;2366;51.332;6.610;2023-04-16T06:11:34;43.85;;;23.02;;
4704;SDS011;2366;51.332;6.610;2023-04-16T06:14:00;50.23;;;24.87;;
4704;SDS011;2366;51.332;6.610;2023-04-16T06:16:25;51.57;;;25.60;;
4704;SDS011;2366;51.332;6.610;2023-04-16T06:18:51;39.67;;;21.20;;
4704;SDS011;2366;51.332;6.610;2023-04-16T06:21:16;52.17;;;25.93;;
4704;SDS011;2366;51.332;6.610;2023-04-16T06:23:42;44.80;;;23.60;;
4704;SDS011;2366;51.332;6.610;2023-04-16T06:26:07;45.50;;;21.07;;
4704;SDS011;2366;51.332;6.610;2023-04-16T06:28:32;56.17;;;24.50;;
4704;SDS011;2366;51.332;6.610;2023-04-16T06:30:58;46.30;;;24.37;;
4704;SDS011;2366;51.332;6.610;2023-04-16T06:33:23;52.27;;;26.20;;
4704;SDS011;2366;51.332;6.610;2023-04-16T06:35:49;66.57;;;28.00;;
4704;SDS011;2366;51.332;6.610;2023-04-16T06:38:14;56.47;;;25.60;;
4704;SDS011;2366;51.332;6.610;2023-04-16T06:40:40;57.60;;;25.80;;
4704;SDS011;2366;51.332;6.610;2023-04-16T06:43:05;52.27;;;23.40;;
4704;SDS011;2366;51.332;6.610;2023-04-16T06:45:31;50.33;;;25.70;;
4704;SDS011;2366;51.332;6.610;2023-04-16T06:47:56;44.70;;;22.73;;
4704;SDS011;2366;51.332;6.610;2023-04-16T06:50:23;54.35;;;27.08;;
4704;SDS011;2366;51.332;6.610;2023-04-16T06:52:50;53.05;;;26.17;;
4704;SDS011;2366;51.332;6.610;2023-04-16T06:55:16;57.53;;;27.13;;
4704;SDS011;2366;51.332;6.610;2023-04-16T06:57:42;44.13;;;25.77;;
4704;SDS011;2366;51.332;6.610;2023-04-16T07:00:07;58.10;;;27.47;;
4704;SDS011;2366;51.332;6.610;2023-04-16T07:02:33;52.27;;;26.10;;
4704;SDS011;2366;51.332;6.610;2023-04-16T07:04:58;55.73;;;26.93;;
4704;SDS011;2366;51.332;6.610;2023-04-16T07:07:24;55.43;;;25.57;;
4704;SDS011;2366;51.332;6.610;2023-04-16T07:09:49;52.17;;;28.57;;
4704;SDS011;2366;51.332;6.610;2023-04-16T07:12:15;47.47;;;24.00;;
4704;SDS011;2366;51.332;6.610;2023-04-16T07:14:40;55.63;;;29.17;;
4704;SDS011;2366;51.332;6.610;2023-04-16T07:17:06;60.40;;;27.20;;
4704;SDS011;2366;51.332;6.610;2023-04-16T07:19:31;52.37;;;26.50;;
4704;SDS011;2366;51.332;6.610;2023-04-16T07:22:00;59.63;;;28.47;;
4704;SDS011;2366;51.332;6.610;2023-04-16T07:24:25;54.55;;;27.42;;
4704;SDS011;2366;51.332;6.610;2023-04-16T07:26:51;54.03;;;27.43;;
4704;SDS011;2366;51.332;6.610;2023-04-16T07:29:16;53.27;;;26.23;;
4704;SDS011;2366;51.332;6.610;2023-04-16T07:31:42;53.30;;;28.17;;
4704;SDS011;2366;51.332;6.610;2023-04-16T07:34:08;54.25;;;29.80;;
4704;SDS011;2366;51.332;6.610;2023-04-16T07:36:34;52.90;;;29.43;;
4704;SDS011;2366;51.332;6.610;2023-04-16T07:39:00;51.20;;;29.37;;
4704;SDS011;2366;51.332;6.610;2023-04-16T07:41:25;48.40;;;29.97;;
4704;SDS011;2366;51.332;6.610;2023-04-16T07:43:51;42.90;;;25.90;;
4704;SDS011;2366;51.332;6.610;2023-04-16T07:46:16;45.00;;;27.20;;
4704;SDS011;2366;51.332;6.610;2023-04-16T07:48:41;41.80;;;25.77;;
4704;SDS011;2366;51.332;6.610;2023-04-16T07:51:07;36.45;;;23.77;;
4704;SDS011;2366;51.332;6.610;2023-04-16T07:53:33;55.13;;;27.63;;
4704;SDS011;2366;51.332;6.610;2023-04-16T07:55:58;49.43;;;26.90;;
4704;SDS011;2366;51.332;6.610;2023-04-16T07:58:23;52.73;;;28.87;;
4704;SDS011;2366;51.332;6.610;2023-04-16T08:00:49;48.40;;;29.00;;
4704;SDS011;2366;51.332;6.610;2023-04-16T08:03:15;55.97;;;30.33;;
4704;SDS011;2366;51.332;6.610;2023-04-16T08:05:42;47.80;;;29.45;;
4704;SDS011;2366;51.332;6.610;2023-04-16T08:08:07;52.50;;;30.20;;
4704;SDS011;2366;51.332;6.610;2023-04-16T08:10:32;41.40;;;28.13;;
4704;SDS011;2366;51.332;6.610;2023-04-16T08:12:59;46.13;;;27.07;;
4704;SDS011;2366;51.332;6.610;2023-04-16T08:15:25;47.88;;;24.75;;
4704;SDS011;2366;51.332;6.610;2023-04-16T08:17:51;45.27;;;25.37;;
4704;SDS011;2366;51.332;6.610;2023-04-16T08:20:16;45.27;;;27.63;;
4704;SDS011;2366;51.332;6.610;2023-04-16T08:22:42;46.13;;;27.20;;
4704;SDS011;2366;51.332;6.610;2023-04-16T08:25:08;44.13;;;25.77;;
4704;SDS011;2366;51.332;6.610;2023-04-16T08:27:34;42.63;;;26.10;;
4704;SDS011;2366;51.332;6.610;2023-04-16T08:29:59;44.83;;;23.90;;
4704;SDS011;2366;51.332;6.610;2023-04-16T08:32:25;48.03;;;25.73;;
4704;SDS011;2366;51.332;6.610;2023-04-16T08:34:51;49.03;;;26.73;;
4704;SDS011;2366;51.332;6.610;2023-04-16T08:37:16;38.03;;;26.33;;
4704;SDS011;2366;51.332;6.610;2023-04-16T08:39:41;39.20;;;23.63;;
4704;SDS011;2366;51.332;6.610;2023-04-16T08:42:09;44.73;;;27.53;;
4704;SDS011;2366;51.332;6.610;2023-04-16T08:44:40;38.05;;;23.83;;
4704;SDS011;2366;51.332;6.610;2023-04-16T08:47:11;42.03;;;27.38;;
4704;SDS011;2366;51.332;6.610;2023-04-16T08:49:36;36.80;;;22.23;;
4704;SDS011;2366;51.332;6.610;2023-04-16T08:52:17;39.40;;;27.55;;
4704;SDS011;2366;51.332;6.610;2023-04-16T08:57:25;47.83;;;25.48;;
4704;SDS011;2366;51.332;6.610;2023-04-16T08:59:58;41.40;;;25.83;;
4704;SDS011;2366;51.332;6.610;2023-04-16T09:02:25;37.05;;;25.45;;
4704;SDS011;2366;51.332;6.610;2023-04-16T09:04:52;39.17;;;25.70;;
4704;SDS011;2366;51.332;6.610;2023-04-16T09:07:19;36.60;;;24.08;;
4704;SDS011;2366;51.332;6.610;2023-04-16T09:09:47;37.38;;;25.15;;
4704;SDS011;2366;51.332;6.610;2023-04-16T09:12:13;41.40;;;25.15;;
4704;SDS011;2366;51.332;6.610;2023-04-16T09:14:38;41.53;;;25.70;;
4704;SDS011;2366;51.332;6.610;2023-04-16T09:17:05;32.47;;;22.02;;
4704;SDS011;2366;51.332;6.610;2023-04-16T09:19:31;34.40;;;21.50;;
4704;SDS011;2366;51.332;6.610;2023-04-16T09:21:56;39.03;;;23.67;;
4704;SDS011;2366;51.332;6.610;2023-04-16T09:24:22;32.10;;;22.47;;
4704;SDS011;2366;51.332;6.610;2023-04-16T09:26:48;27.88;;;19.30;;
4704;SDS011;2366;51.332;6.610;2023-04-16T09:29:31;34.92;;;21.30;;
4704;SDS011;2366;51.332;6.610;2023-04-16T09:32:02;31.55;;;21.83;;
4704;SDS011;2366;51.332;6.610;2023-04-16T09:34:30;35.88;;;21.13;;
4704;SDS011;2366;51.332;6.610;2023-04-16T09:37:12;28.88;;;19.00;;
4704;SDS011;2366;51.332;6.610;2023-04-16T09:39:38;28.38;;;19.08;;
4704;SDS011;2366;51.332;6.610;2023-04-16T09:42:05;29.10;;;20.90;;
4704;SDS011;2366;51.332;6.610;2023-04-16T09:44:33;29.97;;;21.77;;
4704;SDS011;2366;51.332;6.610;2023-04-16T09:47:04;30.98;;;20.77;;
4704;SDS011;2366;51.332;6.610;2023-04-16T09:49:33;29.73;;;19.45;;
4704;SDS011;2366;51.332;6.610;2023-04-16T09:52:02;35.50;;;19.23;;
4704;SDS011;2366;51.332;6.610;2023-04-16T09:54:32;33.33;;;22.48;;
4704;SDS011;2366;51.332;6.610;2023-04-16T09:56:59;32.40;;;21.90;;
4704;SDS011;2366;51.332;6.610;2023-04-16T09:59:26;38.10;;;19.85;;
4704;SDS011;2366;51.332;6.610;2023-04-16T10:01:57;34.03;;;21.17;;
4704;SDS011;2366;51.332;6.610;2023-04-16T10:04:24;30.65;;;19.45;;
4704;SDS011;2366;51.332;6.610;2023-04-16T10:07:05;30.53;;;19.67;;
4704;SDS011;2366;51.332;6.610;2023-04-16T10:09:31;32.40;;;22.27;;
4704;SDS011;2366;51.332;6.610;2023-04-16T10:12:00;27.83;;;21.50;;
4704;SDS011;2366;51.332;6.610;2023-04-16T10:14:26;30.47;;;21.00;;
4704;SDS011;2366;51.332;6.610;2023-04-16T10:16:51;32.60;;;20.17;;
4704;SDS011;2366;51.332;6.610;2023-04-16T10:19:17;28.40;;;21.27;;
4704;SDS011;2366;51.332;6.610;2023-04-16T10:21:44;30.60;;;19.27;;
4704;SDS011;2366;51.332;6.610;2023-04-16T10:24:09;25.20;;;18.70;;
4704;SDS011;2366;51.332;6.610;2023-04-16T10:26:36;31.00;;;18.80;;
4704;SDS011;2366;51.332;6.610;2023-04-16T10:29:05;27.13;;;20.60;;
4704;SDS011;2366;51.332;6.610;2023-04-16T10:31:31;27.83;;;19.17;;
4704;SDS011;2366;51.332;6.610;2023-04-16T10:33:57;27.00;;;19.43;;
4704;SDS011;2366;51.332;6.610;2023-04-16T10:36:23;32.50;;;19.13;;
4704;SDS011;2366;51.332;6.610;2023-04-16T10:38:50;32.08;;;19.02;;
4704;SDS011;2366;51.332;6.610;2023-04-16T10:41:18;32.35;;;19.92;;
4704;SDS011;2366;51.332;6.610;2023-04-16T10:43:46;26.10;;;17.50;;
4704;SDS011;2366;51.332;6.610;2023-04-16T10:46:25;31.77;;;19.35;;
4704;SDS011;2366;51.332;6.610;2023-04-16T10:48:55;28.38;;;20.35;;
4704;SDS011;2366;51.332;6.610;2023-04-16T10:51:29;25.17;;;18.13;;
4704;SDS011;2366;51.332;6.610;2023-04-16T10:53:57;28.05;;;19.50;;
4704;SDS011;2366;51.332;6.610;2023-04-16T10:56:46;19.88;;;14.68;;
4704;SDS011;2366;51.332;6.610;2023-04-16T10:59:12;22.80;;;16.80;;
4704;SDS011;2366;51.332;6.610;2023-04-16T11:01:43;21.02;;;16.50;;
4704;SDS011;2366;51.332;6.610;2023-04-16T11:15:12;22.73;;;17.30;;
4704;SDS011;2366;51.332;6.610;2023-04-16T11:22:41;23.90;;;15.13;;
4704;SDS011;2366;51.332;6.610;2023-04-16T11:25:07;24.33;;;16.35;;
4704;SDS011;2366;51.332;6.610;2023-04-16T11:27:32;22.10;;;14.90;;
4704;SDS011;2366;51.332;6.610;2023-04-16T11:30:02;20.80;;;15.73;;
4704;SDS011;2366;51.332;6.610;2023-04-16T11:32:32;28.88;;;17.08;;
4704;SDS011;2366;51.332;6.610;2023-04-16T11:35:00;19.95;;;15.70;;
4704;SDS011;2366;51.332;6.610;2023-04-16T11:37:34;19.90;;;15.00;;
4704;SDS011;2366;51.332;6.610;2023-04-16T11:40:02;22.75;;;13.88;;
4704;SDS011;2366;51.332;6.610;2023-04-16T11:42:30;15.57;;;13.20;;
4704;SDS011;2366;51.332;6.610;2023-04-16T11:44:57;17.55;;;12.55;;
4704;SDS011;2366;51.332;6.610;2023-04-16T11:47:27;19.17;;;13.70;;
4704;SDS011;2366;51.332;6.610;2023-04-16T11:49:54;18.15;;;13.57;;
4704;SDS011;2366;51.332;6.610;2023-04-16T11:54:52;22.83;;;14.60;;
4704;SDS011;2366;51.332;6.610;2023-04-16T11:57:27;24.40;;;15.03;;
4704;SDS011;2366;51.332;6.610;2023-04-16T11:59:54;19.50;;;13.60;;
4704;SDS011;2366;51.332;6.610;2023-04-16T12:05:07;16.10;;;12.68;;
4704;SDS011;2366;51.332;6.610;2023-04-16T12:07:54;15.38;;;13.02;;
4704;SDS011;2366;51.332;6.610;2023-04-16T12:10:20;16.55;;;12.73;;
4704;SDS011;2366;51.332;6.610;2023-04-16T12:12:46;16.27;;;13.50;;
4704;SDS011;2366;51.332;6.610;2023-04-16T12:15:12;15.47;;;13.20;;
4704;SDS011;2366;51.332;6.610;2023-04-16T12:17:37;14.97;;;13.20;;
4704;SDS011;2366;51.332;6.610;2023-04-16T12:20:09;15.37;;;11.57;;
4704;SDS011;2366;51.332;6.610;2023-04-16T12:22:36;17.33;;;12.73;;
4704;SDS011;2366;51.332;6.610;2023-04-16T12:25:04;16.83;;;12.35;;
4704;SDS011;2366;51.332;6.610;2023-04-16T12:27:41;14.25;;;11.75;;
4704;SDS011;2366;51.332;6.610;2023-04-16T12:30:11;16.00;;;12.50;;
4704;SDS011;2366;51.332;6.610;2023-04-16T12:32:38;15.48;;;11.80;;
4704;SDS011;2366;51.332;6.610;2023-04-16T12:35:04;16.27;;;12.27;;
4704;SDS011;2366;51.332;6.610;2023-04-16T12:37:30;19.93;;;13.20;;
4704;SDS011;2366;51.332;6.610;2023-04-16T12:39:56;16.90;;;13.50;;
4704;SDS011;2366;51.332;6.610;2023-04-16T12:42:21;15.93;;;13.80;;
4704;SDS011;2366;51.332;6.610;2023-04-16T12:44:47;14.00;;;12.23;;
4704;SDS011;2366;51.332;6.610;2023-04-16T12:47:12;14.93;;;12.57;;
4704;SDS011;2366;51.332;6.610;2023-04-16T12:49:37;19.77;;;14.00;;
4704;SDS011;2366;51.332;6.610;2023-04-16T12:52:03;16.67;;;13.30;;
4704;SDS011;2366;51.332;6.610;2023-04-16T12:54:28;16.97;;;13.67;;
4704;SDS011;2366;51.332;6.610;2023-04-16T12:56:55;18.10;;;14.82;;
4704;SDS011;2366;51.332;6.610;2023-04-16T12:59:21;23.58;;;14.38;;
4704;SDS011;2366;51.332;6.610;2023-04-16T13:01:47;16.50;;;14.47;;
4704;SDS011;2366;51.332;6.610;2023-04-16T13:04:12;15.17;;;12.57;;
4704;SDS011;2366;51.332;6.610;2023-04-16T13:06:38;16.33;;;11.93;;
4704;SDS011;2366;51.332;6.610;2023-04-16T13:09:04;15.55;;;12.65;;
4704;SDS011;2366;51.332;6.610;2023-04-16T13:11:30;17.33;;;13.77;;
4704;SDS011;2366;51.332;6.610;2023-04-16T13:13:56;17.93;;;12.40;;
4704;SDS011;2366;51.332;6.610;2023-04-16T13:16:22;13.73;;;12.07;;
4704;SDS011;2366;51.332;6.610;2023-04-16T13:18:48;15.70;;;13.20;;
4704;SDS011;2366;51.332;6.610;2023-04-16T13:21:13;15.70;;;12.67;;
4704;SDS011;2366;51.332;6.610;2023-04-16T13:23:39;18.90;;;13.20;;
4704;SDS011;2366;51.332;6.610;2023-04-16T13:26:04;16.90;;;13.60;;
4704;SDS011;2366;51.332;6.610;2023-04-16T13:28:29;15.07;;;13.47;;
4704;SDS011;2366;51.332;6.610;2023-04-16T13:30:55;16.10;;;13.30;;
4704;SDS011;2366;51.332;6.610;2023-04-16T13:33:21;15.82;;;13.38;;
4704;SDS011;2366;51.332;6.610;2023-04-16T13:35:50;19.80;;;14.10;;
4704;SDS011;2366;51.332;6.610;2023-04-16T13:38:15;21.60;;;13.68;;
4704;SDS011;2366;51.332;6.610;2023-04-16T13:40:41;15.97;;;14.33;;
4704;SDS011;2366;51.332;6.610;2023-04-16T13:43:06;17.30;;;13.83;;
4704;SDS011;2366;51.332;6.610;2023-04-16T13:45:32;18.13;;;15.10;;
4704;SDS011;2366;51.332;6.610;2023-04-16T13:47:58;22.03;;;14.77;;
4704;SDS011;2366;51.332;6.610;2023-04-16T13:50:23;15.63;;;13.90;;
4704;SDS011;2366;51.332;6.610;2023-04-16T13:52:49;21.73;;;15.13;;
4704;SDS011;2366;51.332;6.610;2023-04-16T13:55:15;23.37;;;15.37;;
4704;SDS011;2366;51.332;6.610;2023-04-16T13:57:43;27.17;;;14.57;;
4704;SDS011;2366;51.332;6.610;2023-04-16T14:00:11;18.30;;;14.70;;
4704;SDS011;2366;51.332;6.610;2023-04-16T14:02:37;20.73;;;16.10;;
4704;SDS011;2366;51.332;6.610;2023-04-16T14:05:03;18.55;;;15.55;;
4704;SDS011;2366;51.332;6.610;2023-04-16T14:07:29;17.30;;;14.40;;
4704;SDS011;2366;51.332;6.610;2023-04-16T14:09:54;20.90;;;13.83;;
4704;SDS011;2366;51.332;6.610;2023-04-16T14:12:19;19.00;;;14.97;;
4704;SDS011;2366;51.332;6.610;2023-04-16T14:14:45;16.10;;;13.47;;
4704;SDS011;2366;51.332;6.610;2023-04-16T14:17:10;17.73;;;14.97;;
4704;SDS011;2366;51.332;6.610;2023-04-16T14:19:36;20.50;;;14.93;;
4704;SDS011;2366;51.332;6.610;2023-04-16T14:22:01;18.23;;;16.00;;
4704;SDS011;2366;51.332;6.610;2023-04-16T14:24:26;17.73;;;14.50;;
4704;SDS011;2366;51.332;6.610;2023-04-16T14:26:52;20.50;;;15.03;;
4704;SDS011;2366;51.332;6.610;2023-04-16T14:29:17;15.97;;;12.83;;
4704;SDS011;2366;51.332;6.610;2023-04-16T14:31:42;16.70;;;14.30;;
4704;SDS011;2366;51.332;6.610;2023-04-16T14:34:08;21.70;;;16.40;;
4704;SDS011;2366;51.332;6.610;2023-04-16T14:36:35;19.20;;;15.00;;
4704;SDS011;2366;51.332;6.610;2023-04-16T14:39:00;24.77;;;15.70;;
4704;SDS011;2366;51.332;6.610;2023-04-16T14:41:26;18.50;;;14.30;;
4704;SDS011;2366;51.332;6.610;2023-04-16T14:43:51;22.50;;;15.57;;
4704;SDS011;2366;51.332;6.610;2023-04-16T14:46:16;18.60;;;16.27;;
4704;SDS011;2366;51.332;6.610;2023-04-16T14:48:42;16.87;;;14.67;;
4704;SDS011;2366;51.332;6.610;2023-04-16T14:51:08;20.30;;;15.37;;
4704;SDS011;2366;51.332;6.610;2023-04-16T14:53:35;21.70;;;15.70;;
4704;SDS011;2366;51.332;6.610;2023-04-16T14:56:01;16.85;;;13.98;;
4704;SDS011;2366;51.332;6.610;2023-04-16T14:58:26;15.87;;;14.27;;
4704;SDS011;2366;51.332;6.610;2023-04-16T15:00:52;23.17;;;16.30;;
4704;SDS011;2366;51.332;6.610;2023-04-16T15:03:17;17.03;;;14.97;;
4704;SDS011;2366;51.332;6.610;2023-04-16T15:05:42;20.50;;;15.90;;